sensor_id;sensor_type;location;lat;lon;timestamp;P1;durP1;ratioP1;P2;durP2;ratioP2
75990;SDS011;64673;52.276;10.560;2023-09-19T00:01:57;1.20;;;0.30;;
75990;SDS011;64673;52.276;10.560;2023-09-19T00:04:22;1.92;;;0.20;;
75990;SDS011;64673;52.276;10.560;2023-09-19T00:06:53;8.82;;;0.38;;
75990;SDS011;64673;52.276;10.560;2023-09-19T00:09:19;4.35;;;0.30;;
75990;SDS011;64673;52.276;10.560;2023-09-19T00:11:44;0.50;;;0.20;;
75990;SDS011;64673;52.276;10.560;2023-09-19T00:14:12;0.85;;;0.15;;
75990;SDS011;64673;52.276;10.560;2023-09-19T00:16:39;0.88;;;0.47;;
75990;SDS011;64673;52.276;10.560;2023-09-19T00:19:06;0.75;;;0.30;;
75990;SDS011;64673;52.276;10.560;2023-09-19T00:21:32;0.28;;;0.15;;
75990;SDS011;64673;52.276;10.560;2023-09-19T00:23:57;1.02;;;0.30;;
75990;SDS011;64673;52.276;10.560;2023-09-19T00:26:23;0.30;;;0.17;;
75990;SDS011;64673;52.276;10.560;2023-09-19T00:28:51;2.75;;;0.30;;
75990;SDS011;64673;52.276;10.560;2023-09-19T00:31:17;0.68;;;0.20;;
75990;SDS011;64673;52.276;10.560;2023-09-19T00:33:43;0.50;;;0.20;;
75990;SDS011;64673;52.276;10.560;2023-09-19T00:36:08;1.02;;;0.20;;
75990;SDS011;64673;52.276;10.560;2023-09-19T00:38:34;0.73;;;0.20;;
75990;SDS011;64673;52.276;10.560;2023-09-19T00:40:59;0.20;;;0.10;;
75990;SDS011;64673;52.276;10.560;2023-09-19T00:43:27;0.63;;;0.20;;
75990;SDS011;64673;52.276;10.560;2023-09-19T00:45:53;1.10;;;0.30;;
75990;SDS011;64673;52.276;10.560;2023-09-19T00:48:22;2.67;;;0.30;;
75990;SDS011;64673;52.276;10.560;2023-09-19T00:50:50;1.52;;;0.40;;
75990;SDS011;64673;52.276;10.560;2023-09-19T00:53:17;1.85;;;0.25;;
75990;SDS011;64673;52.276;10.560;2023-09-19T00:55:45;0.45;;;0.20;;
75990;SDS011;64673;52.276;10.560;2023-09-19T00:58:12;0.32;;;0.20;;
75990;SDS011;64673;52.276;10.560;2023-09-19T01:00:37;0.50;;;0.30;;
75990;SDS011;64673;52.276;10.560;2023-09-19T01:03:03;0.90;;;0.20;;
75990;SDS011;64673;52.276;10.560;2023-09-19T01:05:31;0.32;;;0.20;;
75990;SDS011;64673;52.276;10.560;2023-09-19T01:07:58;1.38;;;0.38;;
75990;SDS011;64673;52.276;10.560;2023-09-19T01:10:23;0.30;;;0.10;;
75990;SDS011;64673;52.276;10.560;2023-09-19T01:15:42;3.50;;;0.38;;
75990;SDS011;64673;52.276;10.560;2023-09-19T01:27:05;2.03;;;0.30;;
75990;SDS011;64673;52.276;10.560;2023-09-19T01:29:46;0.30;;;0.15;;
75990;SDS011;64673;52.276;10.560;2023-09-19T01:32:14;1.15;;;0.30;;
75990;SDS011;64673;52.276;10.560;2023-09-19T01:37:14;3.55;;;0.47;;
75990;SDS011;64673;52.276;10.560;2023-09-19T01:39:44;0.80;;;0.25;;
75990;SDS011;64673;52.276;10.560;2023-09-19T01:42:35;0.57;;;0.40;;
75990;SDS011;64673;52.276;10.560;2023-09-19T01:45:09;0.55;;;0.38;;
75990;SDS011;64673;52.276;10.560;2023-09-19T01:47:56;3.78;;;0.30;;
75990;SDS011;64673;52.276;10.560;2023-09-19T01:50:33;0.70;;;0.40;;
75990;SDS011;64673;52.276;10.560;2023-09-19T01:53:10;0.90;;;0.40;;
75990;SDS011;64673;52.276;10.560;2023-09-19T01:55:50;0.85;;;0.40;;
75990;SDS011;64673;52.276;10.560;2023-09-19T02:01:24;1.80;;;0.32;;
75990;SDS011;64673;52.276;10.560;2023-09-19T02:06:18;0.30;;;0.20;;
75990;SDS011;64673;52.276;10.560;2023-09-19T02:08:44;0.30;;;0.10;;
75990;SDS011;64673;52.276;10.560;2023-09-19T02:11:11;1.52;;;0.30;;
75990;SDS011;64673;52.276;10.560;2023-09-19T02:13:37;0.88;;;0.47;;
75990;SDS011;64673;52.276;10.560;2023-09-19T02:16:03;0.85;;;0.43;;
75990;SDS011;64673;52.276;10.560;2023-09-19T02:18:29;1.45;;;0.50;;
75990;SDS011;64673;52.276;10.560;2023-09-19T02:20:55;0.93;;;0.30;;
75990;SDS011;64673;52.276;10.560;2023-09-19T02:23:21;0.47;;;0.20;;
75990;SDS011;64673;52.276;10.560;2023-09-19T02:25:53;3.70;;;0.75;;
75990;SDS011;64673;52.276;10.560;2023-09-19T02:28:19;1.10;;;0.40;;
75990;SDS011;64673;52.276;10.560;2023-09-19T02:30:47;0.98;;;0.40;;
75990;SDS011;64673;52.276;10.560;2023-09-19T02:33:13;0.90;;;0.52;;
75990;SDS011;64673;52.276;10.560;2023-09-19T02:35:39;4.60;;;0.70;;
75990;SDS011;64673;52.276;10.560;2023-09-19T02:38:05;1.63;;;0.45;;
75990;SDS011;64673;52.276;10.560;2023-09-19T02:40:32;1.40;;;0.50;;
75990;SDS011;64673;52.276;10.560;2023-09-19T02:43:00;3.45;;;0.80;;
75990;SDS011;64673;52.276;10.560;2023-09-19T02:45:27;0.90;;;0.40;;
75990;SDS011;64673;52.276;10.560;2023-09-19T02:47:53;0.35;;;0.20;;
75990;SDS011;64673;52.276;10.560;2023-09-19T02:50:19;1.55;;;0.43;;
75990;SDS011;64673;52.276;10.560;2023-09-19T02:52:45;0.77;;;0.50;;
75990;SDS011;64673;52.276;10.560;2023-09-19T02:55:17;0.52;;;0.35;;
75990;SDS011;64673;52.276;10.560;2023-09-19T02:57:53;0.90;;;0.20;;
75990;SDS011;64673;52.276;10.560;2023-09-19T03:00:22;0.98;;;0.50;;
75990;SDS011;64673;52.276;10.560;2023-09-19T03:02:49;1.05;;;0.32;;
75990;SDS011;64673;52.276;10.560;2023-09-19T03:05:14;0.63;;;0.30;;
75990;SDS011;64673;52.276;10.560;2023-09-19T03:07:42;0.85;;;0.30;;
75990;SDS011;64673;52.276;10.560;2023-09-19T03:10:19;1.88;;;0.50;;
75990;SDS011;64673;52.276;10.560;2023-09-19T03:12:46;1.45;;;0.52;;
75990;SDS011;64673;52.276;10.560;2023-09-19T03:15:12;1.10;;;0.50;;
75990;SDS011;64673;52.276;10.560;2023-09-19T03:17:37;0.40;;;0.13;;
75990;SDS011;64673;52.276;10.560;2023-09-19T03:20:03;2.83;;;0.30;;
75990;SDS011;64673;52.276;10.560;2023-09-19T03:22:34;2.75;;;0.57;;
75990;SDS011;64673;52.276;10.560;2023-09-19T03:24:59;1.95;;;0.70;;
75990;SDS011;64673;52.276;10.560;2023-09-19T03:27:25;2.05;;;0.30;;
75990;SDS011;64673;52.276;10.560;2023-09-19T03:29:52;0.95;;;0.45;;
75990;SDS011;64673;52.276;10.560;2023-09-19T03:32:18;1.10;;;0.50;;
75990;SDS011;64673;52.276;10.560;2023-09-19T03:34:45;0.60;;;0.40;;
75990;SDS011;64673;52.276;10.560;2023-09-19T03:37:13;1.25;;;0.70;;
75990;SDS011;64673;52.276;10.560;2023-09-19T03:39:39;1.13;;;0.77;;
75990;SDS011;64673;52.276;10.560;2023-09-19T03:42:04;0.70;;;0.43;;
75990;SDS011;64673;52.276;10.560;2023-09-19T03:44:30;3.28;;;0.57;;
75990;SDS011;64673;52.276;10.560;2023-09-19T03:46:55;1.23;;;0.60;;
75990;SDS011;64673;52.276;10.560;2023-09-19T03:49:21;1.30;;;0.52;;
75990;SDS011;64673;52.276;10.560;2023-09-19T03:51:47;2.67;;;0.93;;
75990;SDS011;64673;52.276;10.560;2023-09-19T03:54:12;1.15;;;0.55;;
75990;SDS011;64673;52.276;10.560;2023-09-19T03:56:37;1.73;;;0.90;;
75990;SDS011;64673;52.276;10.560;2023-09-19T03:59:03;1.30;;;0.73;;
75990;SDS011;64673;52.276;10.560;2023-09-19T04:01:28;1.23;;;0.60;;
75990;SDS011;64673;52.276;10.560;2023-09-19T04:03:56;2.42;;;0.50;;
75990;SDS011;64673;52.276;10.560;2023-09-19T04:06:22;1.35;;;0.88;;
75990;SDS011;64673;52.276;10.560;2023-09-19T04:08:47;3.30;;;0.40;;
75990;SDS011;64673;52.276;10.560;2023-09-19T04:11:13;7.47;;;0.80;;
75990;SDS011;64673;52.276;10.560;2023-09-19T04:13:39;2.50;;;0.60;;
75990;SDS011;64673;52.276;10.560;2023-09-19T04:16:04;1.42;;;0.82;;
75990;SDS011;64673;52.276;10.560;2023-09-19T04:18:30;1.45;;;0.60;;
75990;SDS011;64673;52.276;10.560;2023-09-19T04:20:58;1.42;;;0.70;;
75990;SDS011;64673;52.276;10.560;2023-09-19T04:23:24;1.45;;;0.70;;
75990;SDS011;64673;52.276;10.560;2023-09-19T04:25:50;2.08;;;0.80;;
75990;SDS011;64673;52.276;10.560;2023-09-19T04:28:16;1.63;;;0.85;;
75990;SDS011;64673;52.276;10.560;2023-09-19T04:30:41;0.85;;;0.57;;
75990;SDS011;64673;52.276;10.560;2023-09-19T04:33:06;2.08;;;0.75;;
75990;SDS011;64673;52.276;10.560;2023-09-19T04:35:32;2.13;;;0.80;;
75990;SDS011;64673;52.276;10.560;2023-09-19T04:37:58;1.15;;;0.60;;
75990;SDS011;64673;52.276;10.560;2023-09-19T04:40:23;1.75;;;0.88;;
75990;SDS011;64673;52.276;10.560;2023-09-19T04:42:54;1.45;;;0.80;;
75990;SDS011;64673;52.276;10.560;2023-09-19T04:45:26;3.65;;;1.00;;
75990;SDS011;64673;52.276;10.560;2023-09-19T04:47:53;2.28;;;0.80;;
75990;SDS011;64673;52.276;10.560;2023-09-19T04:50:19;4.03;;;1.13;;
75990;SDS011;64673;52.276;10.560;2023-09-19T04:52:46;1.38;;;1.08;;
75990;SDS011;64673;52.276;10.560;2023-09-19T04:55:16;3.90;;;1.40;;
75990;SDS011;64673;52.276;10.560;2023-09-19T04:57:51;5.35;;;1.23;;
75990;SDS011;64673;52.276;10.560;2023-09-19T05:00:18;2.10;;;1.20;;
75990;SDS011;64673;52.276;10.560;2023-09-19T05:02:51;3.70;;;1.25;;
75990;SDS011;64673;52.276;10.560;2023-09-19T05:05:17;5.28;;;1.42;;
75990;SDS011;64673;52.276;10.560;2023-09-19T05:07:44;9.32;;;1.38;;
75990;SDS011;64673;52.276;10.560;2023-09-19T05:10:10;3.42;;;1.30;;
75990;SDS011;64673;52.276;10.560;2023-09-19T05:12:36;5.15;;;1.20;;
75990;SDS011;64673;52.276;10.560;2023-09-19T05:15:02;3.42;;;1.02;;
75990;SDS011;64673;52.276;10.560;2023-09-19T05:17:28;3.13;;;1.20;;
75990;SDS011;64673;52.276;10.560;2023-09-19T05:19:54;1.63;;;0.90;;
75990;SDS011;64673;52.276;10.560;2023-09-19T05:22:19;4.20;;;1.77;;
75990;SDS011;64673;52.276;10.560;2023-09-19T05:24:45;2.17;;;0.95;;
75990;SDS011;64673;52.276;10.560;2023-09-19T05:27:13;2.20;;;0.90;;
75990;SDS011;64673;52.276;10.560;2023-09-19T05:29:42;1.77;;;0.90;;
75990;SDS011;64673;52.276;10.560;2023-09-19T05:32:10;2.28;;;1.10;;
75990;SDS011;64673;52.276;10.560;2023-09-19T05:34:36;1.88;;;0.82;;
75990;SDS011;64673;52.276;10.560;2023-09-19T05:37:02;3.30;;;0.82;;
75990;SDS011;64673;52.276;10.560;2023-09-19T05:39:27;1.95;;;1.02;;
75990;SDS011;64673;52.276;10.560;2023-09-19T05:41:53;4.38;;;1.10;;
75990;SDS011;64673;52.276;10.560;2023-09-19T05:44:18;7.70;;;0.88;;
75990;SDS011;64673;52.276;10.560;2023-09-19T05:46:43;6.18;;;0.90;;
75990;SDS011;64673;52.276;10.560;2023-09-19T05:49:10;1.52;;;0.93;;
75990;SDS011;64673;52.276;10.560;2023-09-19T05:51:35;1.60;;;0.90;;
75990;SDS011;64673;52.276;10.560;2023-09-19T05:54:01;1.48;;;0.77;;
75990;SDS011;64673;52.276;10.560;2023-09-19T05:56:26;2.75;;;1.10;;
75990;SDS011;64673;52.276;10.560;2023-09-19T05:58:52;5.05;;;0.98;;
75990;SDS011;64673;52.276;10.560;2023-09-19T06:01:18;0.98;;;0.47;;
75990;SDS011;64673;52.276;10.560;2023-09-19T06:03:44;2.13;;;1.05;;
75990;SDS011;64673;52.276;10.560;2023-09-19T06:06:09;4.28;;;0.90;;
75990;SDS011;64673;52.276;10.560;2023-09-19T06:08:35;2.05;;;1.05;;
75990;SDS011;64673;52.276;10.560;2023-09-19T06:11:00;2.70;;;1.42;;
75990;SDS011;64673;52.276;10.560;2023-09-19T06:13:28;5.15;;;1.60;;
75990;SDS011;64673;52.276;10.560;2023-09-19T06:15:54;1.48;;;0.73;;
75990;SDS011;64673;52.276;10.560;2023-09-19T06:18:21;2.58;;;0.90;;
75990;SDS011;64673;52.276;10.560;2023-09-19T06:20:51;5.65;;;1.15;;
75990;SDS011;64673;52.276;10.560;2023-09-19T06:23:17;1.75;;;1.00;;
75990;SDS011;64673;52.276;10.560;2023-09-19T06:25:45;4.65;;;1.60;;
75990;SDS011;64673;52.276;10.560;2023-09-19T06:28:10;2.20;;;1.00;;
75990;SDS011;64673;52.276;10.560;2023-09-19T06:30:39;1.60;;;0.88;;
75990;SDS011;64673;52.276;10.560;2023-09-19T06:33:05;1.30;;;0.82;;
75990;SDS011;64673;52.276;10.560;2023-09-19T06:35:32;3.75;;;1.02;;
75990;SDS011;64673;52.276;10.560;2023-09-19T06:37:58;4.03;;;1.00;;
75990;SDS011;64673;52.276;10.560;2023-09-19T06:40:23;2.80;;;1.30;;
75990;SDS011;64673;52.276;10.560;2023-09-19T06:42:53;4.85;;;1.08;;
75990;SDS011;64673;52.276;10.560;2023-09-19T06:45:19;5.65;;;1.38;;
75990;SDS011;64673;52.276;10.560;2023-09-19T06:47:48;3.10;;;1.05;;
75990;SDS011;64673;52.276;10.560;2023-09-19T06:50:15;4.07;;;1.10;;
75990;SDS011;64673;52.276;10.560;2023-09-19T06:52:43;2.80;;;1.55;;
75990;SDS011;64673;52.276;10.560;2023-09-19T06:55:09;4.47;;;1.25;;
75990;SDS011;64673;52.276;10.560;2023-09-19T07:00:02;1.52;;;0.80;;
75990;SDS011;64673;52.276;10.560;2023-09-19T07:02:29;1.48;;;0.93;;
75990;SDS011;64673;52.276;10.560;2023-09-19T07:04:54;1.92;;;0.93;;
75990;SDS011;64673;52.276;10.560;2023-09-19T07:07:20;1.13;;;0.70;;
75990;SDS011;64673;52.276;10.560;2023-09-19T07:09:45;3.45;;;0.77;;
75990;SDS011;64673;52.276;10.560;2023-09-19T07:12:13;1.10;;;0.75;;
75990;SDS011;64673;52.276;10.560;2023-09-19T07:14:39;4.50;;;0.80;;
75990;SDS011;64673;52.276;10.560;2023-09-19T07:17:04;1.30;;;0.70;;
75990;SDS011;64673;52.276;10.560;2023-09-19T07:19:29;2.33;;;1.20;;
75990;SDS011;64673;52.276;10.560;2023-09-19T07:21:56;1.02;;;0.65;;
75990;SDS011;64673;52.276;10.560;2023-09-19T07:24:24;5.72;;;0.65;;
75990;SDS011;64673;52.276;10.560;2023-09-19T07:26:52;4.55;;;0.75;;
75990;SDS011;64673;52.276;10.560;2023-09-19T07:29:17;0.77;;;0.50;;
75990;SDS011;64673;52.276;10.560;2023-09-19T07:31:43;2.80;;;0.90;;
75990;SDS011;64673;52.276;10.560;2023-09-19T07:34:09;3.83;;;0.95;;
75990;SDS011;64673;52.276;10.560;2023-09-19T07:36:35;5.15;;;0.93;;
75990;SDS011;64673;52.276;10.560;2023-09-19T07:39:02;2.20;;;0.90;;
75990;SDS011;64673;52.276;10.560;2023-09-19T07:41:31;2.83;;;0.93;;
75990;SDS011;64673;52.276;10.560;2023-09-19T07:43:57;3.17;;;0.47;;
75990;SDS011;64673;52.276;10.560;2023-09-19T07:46:23;2.45;;;0.75;;
75990;SDS011;64673;52.276;10.560;2023-09-19T07:48:49;6.53;;;0.77;;
75990;SDS011;64673;52.276;10.560;2023-09-19T07:51:15;5.53;;;1.38;;
75990;SDS011;64673;52.276;10.560;2023-09-19T07:53:41;3.53;;;0.80;;
75990;SDS011;64673;52.276;10.560;2023-09-19T07:56:07;4.22;;;0.73;;
75990;SDS011;64673;52.276;10.560;2023-09-19T07:58:34;1.35;;;0.70;;
75990;SDS011;64673;52.276;10.560;2023-09-19T08:01:02;2.15;;;0.55;;
75990;SDS011;64673;52.276;10.560;2023-09-19T08:03:32;1.85;;;0.52;;
75990;SDS011;64673;52.276;10.560;2023-09-19T08:05:57;4.65;;;0.73;;
75990;SDS011;64673;52.276;10.560;2023-09-19T08:08:23;0.90;;;0.68;;
75990;SDS011;64673;52.276;10.560;2023-09-19T08:11:07;5.10;;;1.02;;
75990;SDS011;64673;52.276;10.560;2023-09-19T08:13:36;1.88;;;0.30;;
75990;SDS011;64673;52.276;10.560;2023-09-19T08:16:08;1.77;;;0.60;;
75990;SDS011;64673;52.276;10.560;2023-09-19T08:18:37;3.38;;;0.88;;
75990;SDS011;64673;52.276;10.560;2023-09-19T08:21:05;6.22;;;0.65;;
75990;SDS011;64673;52.276;10.560;2023-09-19T08:23:33;1.90;;;0.63;;
75990;SDS011;64673;52.276;10.560;2023-09-19T08:25:58;1.30;;;0.35;;
75990;SDS011;64673;52.276;10.560;2023-09-19T08:28:26;0.65;;;0.38;;
75990;SDS011;64673;52.276;10.560;2023-09-19T08:30:54;2.90;;;0.50;;
75990;SDS011;64673;52.276;10.560;2023-09-19T08:33:20;3.90;;;0.73;;
75990;SDS011;64673;52.276;10.560;2023-09-19T08:35:46;3.17;;;0.55;;
75990;SDS011;64673;52.276;10.560;2023-09-19T08:38:11;5.45;;;0.60;;
75990;SDS011;64673;52.276;10.560;2023-09-19T08:40:37;4.13;;;0.40;;
75990;SDS011;64673;52.276;10.560;2023-09-19T08:43:04;0.57;;;0.20;;
75990;SDS011;64673;52.276;10.560;2023-09-19T08:45:30;3.70;;;0.75;;
75990;SDS011;64673;52.276;10.560;2023-09-19T08:50:39;2.22;;;0.63;;
75990;SDS011;64673;52.276;10.560;2023-09-19T08:53:14;1.25;;;0.57;;
75990;SDS011;64673;52.276;10.560;2023-09-19T08:55:45;0.88;;;0.40;;
75990;SDS011;64673;52.276;10.560;2023-09-19T08:58:13;0.63;;;0.32;;
75990;SDS011;64673;52.276;10.560;2023-09-19T09:00:44;3.38;;;0.55;;
75990;SDS011;64673;52.276;10.560;2023-09-19T09:03:14;3.03;;;0.68;;
75990;SDS011;64673;52.276;10.560;2023-09-19T09:05:41;6.13;;;0.82;;
75990;SDS011;64673;52.276;10.560;2023-09-19T09:08:08;2.42;;;0.85;;
75990;SDS011;64673;52.276;10.560;2023-09-19T09:13:02;2.80;;;1.33;;
75990;SDS011;64673;52.276;10.560;2023-09-19T09:15:31;6.50;;;0.82;;
75990;SDS011;64673;52.276;10.560;2023-09-19T09:18:01;0.45;;;0.35;;
75990;SDS011;64673;52.276;10.560;2023-09-19T09:20:28;4.57;;;0.50;;
75990;SDS011;64673;52.276;10.560;2023-09-19T09:22:53;2.13;;;0.45;;
75990;SDS011;64673;52.276;10.560;2023-09-19T09:25:20;4.55;;;0.70;;
75990;SDS011;64673;52.276;10.560;2023-09-19T09:28:06;0.60;;;0.30;;
75990;SDS011;64673;52.276;10.560;2023-09-19T09:30:32;3.60;;;0.30;;
75990;SDS011;64673;52.276;10.560;2023-09-19T09:33:09;2.13;;;0.35;;
75990;SDS011;64673;52.276;10.560;2023-09-19T09:35:52;3.88;;;0.32;;
75990;SDS011;64673;52.276;10.560;2023-09-19T09:38:18;3.70;;;0.90;;
75990;SDS011;64673;52.276;10.560;2023-09-19T09:43:33;1.13;;;0.30;;
75990;SDS011;64673;52.276;10.560;2023-09-19T09:46:16;2.47;;;0.30;;
75990;SDS011;64673;52.276;10.560;2023-09-19T09:51:33;1.75;;;0.30;;
75990;SDS011;64673;52.276;10.560;2023-09-19T09:54:15;0.63;;;0.15;;
75990;SDS011;64673;52.276;10.560;2023-09-19T09:56:57;2.25;;;0.40;;
75990;SDS011;64673;52.276;10.560;2023-09-19T10:02:11;0.90;;;0.40;;
75990;SDS011;64673;52.276;10.560;2023-09-19T10:04:39;2.58;;;0.52;;
75990;SDS011;64673;52.276;10.560;2023-09-19T10:07:26;3.33;;;0.20;;
75990;SDS011;64673;52.276;10.560;2023-09-19T10:10:02;0.43;;;0.10;;
75990;SDS011;64673;52.276;10.560;2023-09-19T10:12:48;3.30;;;0.45;;
75990;SDS011;64673;52.276;10.560;2023-09-19T10:15:17;2.83;;;0.35;;
75990;SDS011;64673;52.276;10.560;2023-09-19T10:17:46;4.60;;;0.30;;
75990;SDS011;64673;52.276;10.560;2023-09-19T10:20:15;2.38;;;0.43;;
75990;SDS011;64673;52.276;10.560;2023-09-19T10:22:57;1.92;;;0.60;;
75990;SDS011;64673;52.276;10.560;2023-09-19T10:25:25;1.58;;;0.50;;
75990;SDS011;64673;52.276;10.560;2023-09-19T10:27:51;4.15;;;0.70;;
75990;SDS011;64673;52.276;10.560;2023-09-19T10:30:18;1.33;;;0.20;;
75990;SDS011;64673;52.276;10.560;2023-09-19T10:32:45;4.53;;;0.80;;
75990;SDS011;64673;52.276;10.560;2023-09-19T10:35:16;0.77;;;0.38;;
75990;SDS011;64673;52.276;10.560;2023-09-19T10:37:43;2.92;;;0.55;;
75990;SDS011;64673;52.276;10.560;2023-09-19T10:40:15;2.85;;;0.40;;
75990;SDS011;64673;52.276;10.560;2023-09-19T10:42:41;2.80;;;0.57;;
75990;SDS011;64673;52.276;10.560;2023-09-19T10:45:07;1.10;;;0.40;;
75990;SDS011;64673;52.276;10.560;2023-09-19T10:47:38;1.08;;;0.30;;
75990;SDS011;64673;52.276;10.560;2023-09-19T10:50:03;1.58;;;0.35;;
75990;SDS011;64673;52.276;10.560;2023-09-19T10:52:37;2.97;;;0.47;;
75990;SDS011;64673;52.276;10.560;2023-09-19T10:55:07;4.75;;;0.55;;
75990;SDS011;64673;52.276;10.560;2023-09-19T10:57:34;4.15;;;0.32;;
75990;SDS011;64673;52.276;10.560;2023-09-19T11:00:05;1.30;;;0.63;;
75990;SDS011;64673;52.276;10.560;2023-09-19T11:05:36;0.60;;;0.30;;
75990;SDS011;64673;52.276;10.560;2023-09-19T11:08:05;0.43;;;0.25;;
75990;SDS011;64673;52.276;10.560;2023-09-19T11:13:28;2.15;;;0.60;;
75990;SDS011;64673;52.276;10.560;2023-09-19T11:19:10;2.97;;;0.80;;
75990;SDS011;64673;52.276;10.560;2023-09-19T11:26:44;1.75;;;0.40;;
75990;SDS011;64673;52.276;10.560;2023-09-19T11:29:28;0.73;;;0.35;;
75990;SDS011;64673;52.276;10.560;2023-09-19T11:31:56;0.85;;;0.40;;
75990;SDS011;64673;52.276;10.560;2023-09-19T11:37:02;2.55;;;0.70;;
75990;SDS011;64673;52.276;10.560;2023-09-19T11:42:45;4.63;;;0.60;;
75990;SDS011;64673;52.276;10.560;2023-09-19T11:48:10;4.55;;;0.70;;
75990;SDS011;64673;52.276;10.560;2023-09-19T11:50:38;2.65;;;0.40;;
75990;SDS011;64673;52.276;10.560;2023-09-19T11:53:08;1.63;;;0.55;;
75990;SDS011;64673;52.276;10.560;2023-09-19T11:55:36;0.98;;;0.28;;
75990;SDS011;64673;52.276;10.560;2023-09-19T11:58:03;3.15;;;0.77;;
75990;SDS011;64673;52.276;10.560;2023-09-19T12:00:30;0.93;;;0.40;;
75990;SDS011;64673;52.276;10.560;2023-09-19T12:02:56;2.05;;;0.80;;
75990;SDS011;64673;52.276;10.560;2023-09-19T12:05:29;2.15;;;0.70;;
75990;SDS011;64673;52.276;10.560;2023-09-19T12:07:58;1.10;;;0.52;;
75990;SDS011;64673;52.276;10.560;2023-09-19T12:10:24;1.48;;;0.30;;
75990;SDS011;64673;52.276;10.560;2023-09-19T12:12:49;2.17;;;0.40;;
75990;SDS011;64673;52.276;10.560;2023-09-19T12:15:22;4.10;;;0.80;;
75990;SDS011;64673;52.276;10.560;2023-09-19T12:17:53;2.45;;;0.70;;
75990;SDS011;64673;52.276;10.560;2023-09-19T12:20:19;1.40;;;0.60;;
75990;SDS011;64673;52.276;10.560;2023-09-19T12:22:45;3.25;;;0.43;;
75990;SDS011;64673;52.276;10.560;2023-09-19T12:25:12;4.07;;;0.50;;
75990;SDS011;64673;52.276;10.560;2023-09-19T12:27:47;5.03;;;0.88;;
75990;SDS011;64673;52.276;10.560;2023-09-19T12:30:18;4.68;;;0.60;;
75990;SDS011;64673;52.276;10.560;2023-09-19T12:32:45;3.47;;;0.80;;
75990;SDS011;64673;52.276;10.560;2023-09-19T12:35:26;2.67;;;0.90;;
75990;SDS011;64673;52.276;10.560;2023-09-19T12:37:53;4.10;;;0.45;;
75990;SDS011;64673;52.276;10.560;2023-09-19T12:40:20;1.58;;;0.57;;
75990;SDS011;64673;52.276;10.560;2023-09-19T12:45:13;2.97;;;0.40;;
75990;SDS011;64673;52.276;10.560;2023-09-19T12:51:00;2.17;;;0.47;;
75990;SDS011;64673;52.276;10.560;2023-09-19T12:53:40;2.63;;;0.68;;
75990;SDS011;64673;52.276;10.560;2023-09-19T12:56:07;0.77;;;0.45;;
75990;SDS011;64673;52.276;10.560;2023-09-19T12:58:57;2.00;;;0.50;;
75990;SDS011;64673;52.276;10.560;2023-09-19T13:01:27;0.52;;;0.30;;
75990;SDS011;64673;52.276;10.560;2023-09-19T13:06:47;3.97;;;0.50;;
75990;SDS011;64673;52.276;10.560;2023-09-19T13:09:14;1.73;;;0.70;;
75990;SDS011;64673;52.276;10.560;2023-09-19T13:11:45;1.85;;;0.55;;
75990;SDS011;64673;52.276;10.560;2023-09-19T13:25:01;2.75;;;0.68;;
75990;SDS011;64673;52.276;10.560;2023-09-19T13:27:29;1.30;;;0.20;;
75990;SDS011;64673;52.276;10.560;2023-09-19T13:29:54;1.13;;;0.47;;
75990;SDS011;64673;52.276;10.560;2023-09-19T13:32:19;1.38;;;0.60;;
75990;SDS011;64673;52.276;10.560;2023-09-19T13:34:45;3.95;;;0.90;;
75990;SDS011;64673;52.276;10.560;2023-09-19T13:37:10;2.25;;;0.50;;
75990;SDS011;64673;52.276;10.560;2023-09-19T13:39:36;0.98;;;0.50;;
75990;SDS011;64673;52.276;10.560;2023-09-19T13:42:07;1.25;;;0.57;;
75990;SDS011;64673;52.276;10.560;2023-09-19T13:44:36;3.38;;;0.63;;
75990;SDS011;64673;52.276;10.560;2023-09-19T13:47:03;0.80;;;0.32;;
75990;SDS011;64673;52.276;10.560;2023-09-19T13:49:34;4.35;;;1.05;;
75990;SDS011;64673;52.276;10.560;2023-09-19T13:52:00;1.20;;;0.40;;
75990;SDS011;64673;52.276;10.560;2023-09-19T13:54:28;3.78;;;0.73;;
75990;SDS011;64673;52.276;10.560;2023-09-19T13:56:53;1.38;;;0.43;;
75990;SDS011;64673;52.276;10.560;2023-09-19T13:59:19;1.13;;;0.65;;
75990;SDS011;64673;52.276;10.560;2023-09-19T14:01:45;2.65;;;0.32;;
75990;SDS011;64673;52.276;10.560;2023-09-19T14:04:11;2.50;;;0.70;;
75990;SDS011;64673;52.276;10.560;2023-09-19T14:06:36;0.73;;;0.32;;
75990;SDS011;64673;52.276;10.560;2023-09-19T14:09:02;2.28;;;0.85;;
75990;SDS011;64673;52.276;10.560;2023-09-19T14:11:32;2.10;;;0.60;;
75990;SDS011;64673;52.276;10.560;2023-09-19T14:13:58;1.13;;;0.40;;
75990;SDS011;64673;52.276;10.560;2023-09-19T14:16:23;2.03;;;0.60;;
75990;SDS011;64673;52.276;10.560;2023-09-19T14:18:49;4.53;;;0.82;;
75990;SDS011;64673;52.276;10.560;2023-09-19T14:21:15;2.50;;;0.60;;
75990;SDS011;64673;52.276;10.560;2023-09-19T14:23:40;8.65;;;0.70;;
75990;SDS011;64673;52.276;10.560;2023-09-19T14:26:07;1.58;;;0.35;;
75990;SDS011;64673;52.276;10.560;2023-09-19T14:28:33;4.30;;;0.57;;
75990;SDS011;64673;52.276;10.560;2023-09-19T14:31:03;1.17;;;0.35;;
75990;SDS011;64673;52.276;10.560;2023-09-19T14:33:29;3.15;;;0.70;;
75990;SDS011;64673;52.276;10.560;2023-09-19T14:35:56;0.88;;;0.40;;
75990;SDS011;64673;52.276;10.560;2023-09-19T14:38:21;0.77;;;0.30;;
75990;SDS011;64673;52.276;10.560;2023-09-19T14:40:46;1.55;;;0.45;;
75990;SDS011;64673;52.276;10.560;2023-09-19T14:43:15;2.03;;;0.47;;
75990;SDS011;64673;52.276;10.560;2023-09-19T14:45:40;3.40;;;1.08;;
75990;SDS011;64673;52.276;10.560;2023-09-19T14:48:06;1.77;;;0.70;;
75990;SDS011;64673;52.276;10.560;2023-09-19T14:50:31;3.53;;;0.75;;
75990;SDS011;64673;52.276;10.560;2023-09-19T14:52:57;1.73;;;0.55;;
75990;SDS011;64673;52.276;10.560;2023-09-19T14:55:26;1.92;;;0.50;;
75990;SDS011;64673;52.276;10.560;2023-09-19T14:57:54;1.92;;;0.80;;
75990;SDS011;64673;52.276;10.560;2023-09-19T15:00:21;2.88;;;0.70;;
75990;SDS011;64673;52.276;10.560;2023-09-19T15:02:48;1.80;;;0.70;;
75990;SDS011;64673;52.276;10.560;2023-09-19T15:05:15;2.63;;;0.50;;
75990;SDS011;64673;52.276;10.560;2023-09-19T15:07:41;1.92;;;0.38;;
75990;SDS011;64673;52.276;10.560;2023-09-19T15:10:06;3.13;;;0.35;;
75990;SDS011;64673;52.276;10.560;2023-09-19T15:12:35;3.00;;;0.45;;
75990;SDS011;64673;52.276;10.560;2023-09-19T15:15:02;1.95;;;0.57;;
75990;SDS011;64673;52.276;10.560;2023-09-19T15:17:30;2.42;;;0.55;;
75990;SDS011;64673;52.276;10.560;2023-09-19T15:19:55;0.60;;;0.30;;
75990;SDS011;64673;52.276;10.560;2023-09-19T15:22:21;1.63;;;0.55;;
75990;SDS011;64673;52.276;10.560;2023-09-19T15:24:47;3.17;;;0.88;;
75990;SDS011;64673;52.276;10.560;2023-09-19T15:27:12;1.67;;;0.50;;
75990;SDS011;64673;52.276;10.560;2023-09-19T15:29:38;1.33;;;0.55;;
75990;SDS011;64673;52.276;10.560;2023-09-19T15:32:04;2.00;;;0.40;;
75990;SDS011;64673;52.276;10.560;2023-09-19T15:34:29;2.38;;;0.30;;
75990;SDS011;64673;52.276;10.560;2023-09-19T15:36:55;1.75;;;0.30;;
75990;SDS011;64673;52.276;10.560;2023-09-19T15:39:21;5.60;;;0.50;;
75990;SDS011;64673;52.276;10.560;2023-09-19T15:41:47;1.73;;;0.55;;
75990;SDS011;64673;52.276;10.560;2023-09-19T15:44:19;2.28;;;0.50;;
75990;SDS011;64673;52.276;10.560;2023-09-19T15:46:44;2.70;;;0.57;;
75990;SDS011;64673;52.276;10.560;2023-09-19T15:49:11;0.98;;;0.40;;
75990;SDS011;64673;52.276;10.560;2023-09-19T15:51:37;0.75;;;0.25;;
75990;SDS011;64673;52.276;10.560;2023-09-19T15:54:12;2.13;;;0.50;;
75990;SDS011;64673;52.276;10.560;2023-09-19T15:56:39;2.03;;;0.50;;